createdAt,value
2023-05-15T00:00:42.680Z,95068
2023-05-15T00:01:52.450Z,95065
2023-05-15T00:03:01.179Z,95067
2023-05-15T00:04:08.750Z,95067
2023-05-15T00:05:18.419Z,95066
2023-05-15T00:06:27.106Z,95067
2023-05-15T00:07:35.780Z,95067
2023-05-15T00:08:45.483Z,95069
2023-05-15T00:09:54.100Z,95071
2023-05-15T00:11:03.794Z,95076
2023-05-15T00:12:13.442Z,95069
2023-05-15T00:13:23.091Z,95072
2023-05-15T00:14:32.733Z,95064
2023-05-15T00:15:41.447Z,95064
2023-05-15T00:16:50.076Z,95060
2023-05-15T00:17:59.845Z,95059
2023-05-15T00:19:09.503Z,95050
2023-05-15T00:20:19.171Z,95054
2023-05-15T00:21:27.852Z,95050
2023-05-15T00:22:37.494Z,95056
2023-05-15T00:23:47.142Z,95055
2023-05-15T00:24:55.828Z,95049
2023-05-15T00:26:04.484Z,95052
2023-05-15T00:27:14.115Z,95050
2023-05-15T00:28:22.762Z,95048
2023-05-15T00:29:31.406Z,95049
2023-05-15T00:30:40.099Z,95048
2023-05-15T00:31:49.849Z,95046
2023-05-15T00:33:00.501Z,95044
2023-05-15T00:34:09.082Z,95049
2023-05-15T00:35:17.836Z,95055
2023-05-15T00:36:26.506Z,95048
2023-05-15T00:37:36.145Z,95051
2023-05-15T00:38:44.806Z,95051
2023-05-15T00:39:54.519Z,95046
2023-05-15T00:41:04.204Z,95046
2023-05-15T00:42:13.862Z,95049
2023-05-15T00:43:23.509Z,95051
2023-05-15T00:44:33.182Z,95044
2023-05-15T00:45:42.842Z,95038
2023-05-15T00:46:51.510Z,95044
2023-05-15T00:48:01.265Z,95041
2023-05-15T00:49:10.838Z,95041
2023-05-15T00:50:20.509Z,95036
2023-05-15T00:51:30.154Z,95038
2023-05-15T00:52:39.880Z,95037
2023-05-15T00:53:49.578Z,95040
2023-05-15T00:54:58.241Z,95038
2023-05-15T00:56:06.903Z,95036
2023-05-15T00:57:16.554Z,95038
2023-05-15T00:58:25.270Z,95036
2023-05-15T00:59:34.937Z,95036
2023-05-15T01:00:44.626Z,95039
2023-05-15T01:01:54.300Z,95034
2023-05-15T01:03:04.035Z,95032
2023-05-15T01:04:13.608Z,95036
2023-05-15T01:05:22.298Z,95033
2023-05-15T01:06:31.967Z,95033
2023-05-15T01:07:39.648Z,95031
2023-05-15T01:08:49.323Z,95031
2023-05-15T01:09:56.970Z,95037
2023-05-15T01:11:06.625Z,95035
2023-05-15T01:12:15.329Z,95038
2023-05-15T01:13:24.993Z,95035
2023-05-15T01:14:33.637Z,95042
2023-05-15T01:15:43.290Z,95035
2023-05-15T01:16:53.036Z,95035
2023-05-15T01:18:01.681Z,95037
2023-05-15T01:19:10.376Z,95038
2023-05-15T01:20:19.965Z,95039
2023-05-15T01:21:29.692Z,95040
2023-05-15T01:22:38.334Z,95038
2023-05-15T01:23:47.040Z,95037
2023-05-15T01:24:56.683Z,95036
2023-05-15T01:26:05.366Z,95039
2023-05-15T01:27:15.027Z,95037
2023-05-15T01:28:23.670Z,95038
2023-05-15T01:29:33.309Z,95038
2023-05-15T01:30:43.004Z,95036
2023-05-15T01:31:50.681Z,95034
2023-05-15T01:33:00.308Z,95036
2023-05-15T01:34:09.939Z,95035
2023-05-15T01:35:17.633Z,95032
2023-05-15T01:36:27.291Z,95035
2023-05-15T01:37:36.051Z,95036
2023-05-15T01:38:45.640Z,95033
2023-05-15T01:39:55.352Z,95034
2023-05-15T01:41:03.006Z,95030
2023-05-15T01:42:11.668Z,95034
2023-05-15T01:43:21.318Z,95034
2023-05-15T01:44:30.018Z,95029
2023-05-15T01:45:38.711Z,95034
2023-05-15T01:46:47.463Z,95028
2023-05-15T01:47:57.042Z,95028
2023-05-15T01:49:06.750Z,95032
2023-05-15T01:50:15.387Z,95032
2023-05-15T01:51:25.016Z,95027
2023-05-15T01:52:34.712Z,95027
2023-05-15T01:53:44.490Z,95025
2023-05-15T01:54:54.202Z,95025
2023-05-15T01:56:02.843Z,95032
2023-05-15T01:57:11.478Z,95025
2023-05-15T01:58:21.161Z,95026
2023-05-15T01:59:28.801Z,95026
2023-05-15T02:00:37.444Z,95020
2023-05-15T02:01:47.132Z,95020
2023-05-15T02:02:54.946Z,95020
2023-05-15T02:04:04.572Z,95019
2023-05-15T02:05:14.144Z,95021
2023-05-15T02:06:23.797Z,95020
2023-05-15T02:07:33.492Z,95016
2023-05-15T02:08:43.166Z,95019
2023-05-15T02:09:51.826Z,95016
2023-05-15T02:11:01.489Z,95020
2023-05-15T02:12:09.148Z,95017
2023-05-15T02:13:18.830Z,95016
2023-05-15T02:14:27.489Z,95014
2023-05-15T02:15:37.150Z,95020
2023-05-15T02:16:46.889Z,95019
2023-05-15T02:17:54.556Z,95017
2023-05-15T02:19:04.200Z,95015
2023-05-15T02:20:13.843Z,95018
2023-05-15T02:21:22.483Z,95022
2023-05-15T02:22:31.152Z,95022
2023-05-15T02:23:39.859Z,95025
2023-05-15T02:24:49.469Z,95022
2023-05-15T02:25:59.115Z,95022
2023-05-15T02:27:09.083Z,95021
2023-05-15T02:28:18.731Z,95023
2023-05-15T02:29:28.410Z,95022
2023-05-15T02:30:38.059Z,95022
2023-05-15T02:31:47.760Z,95022
2023-05-15T02:32:57.411Z,95022
2023-05-15T02:34:06.024Z,95025
2023-05-15T02:35:15.676Z,95021
2023-05-15T02:36:24.549Z,95020
2023-05-15T02:37:34.370Z,95023
2023-05-15T02:38:44.066Z,95023
2023-05-15T02:39:52.704Z,95023
2023-05-15T02:41:01.395Z,95018
2023-05-15T02:42:10.137Z,95020
2023-05-15T02:43:19.773Z,95022
2023-05-15T02:44:29.423Z,95018
2023-05-15T02:45:37.115Z,95020
2023-05-15T02:46:45.746Z,95020
2023-05-15T02:47:55.430Z,95021
2023-05-15T02:49:03.044Z,95022
2023-05-15T02:50:12.782Z,95025
2023-05-15T02:51:21.449Z,95023
2023-05-15T02:52:31.108Z,95020
2023-05-15T02:53:40.768Z,95020
2023-05-15T02:54:50.542Z,95017
2023-05-15T02:56:00.264Z,95016
2023-05-15T02:57:07.908Z,95022
2023-05-15T02:58:17.554Z,95020
2023-05-15T02:59:27.254Z,95019
2023-05-15T03:00:36.950Z,95020
2023-05-15T03:01:46.622Z,95019
2023-05-15T03:02:56.284Z,95016
2023-05-15T03:04:05.970Z,95019
2023-05-15T03:05:15.655Z,95015
2023-05-15T03:06:23.294Z,95013
2023-05-15T03:07:32.943Z,95012
2023-05-15T03:08:42.615Z,95013
2023-05-15T03:09:51.282Z,95015
2023-05-15T03:10:59.994Z,95020
2023-05-15T03:12:09.603Z,95020
2023-05-15T03:13:19.295Z,95016
2023-05-15T03:14:28.972Z,95018
2023-05-15T03:15:38.635Z,95019
2023-05-15T03:16:48.337Z,95018
2023-05-15T03:17:57.981Z,95019
2023-05-15T03:19:07.691Z,95019
2023-05-15T03:20:17.324Z,95016
2023-05-15T03:21:26.006Z,95016
2023-05-15T03:22:34.711Z,95011
2023-05-15T03:23:44.440Z,95009
2023-05-15T03:24:52.083Z,95014
2023-05-15T03:26:01.766Z,95009
2023-05-15T03:27:11.446Z,95009
2023-05-15T03:28:19.104Z,95004
2023-05-15T03:29:28.745Z,95009
2023-05-15T03:30:37.402Z,95008
2023-05-15T03:31:46.095Z,95011
2023-05-15T03:32:55.768Z,95014
2023-05-15T03:34:05.398Z,95010
2023-05-15T03:35:15.053Z,95015
2023-05-15T03:36:24.751Z,95013
2023-05-15T03:37:33.449Z,95012
2023-05-15T03:38:42.112Z,95012
2023-05-15T03:39:51.762Z,95012
2023-05-15T03:41:00.428Z,95013
2023-05-15T03:42:09.087Z,95016
2023-05-15T03:43:18.911Z,95011
2023-05-15T03:44:28.398Z,95013
2023-05-15T03:45:38.048Z,95014
2023-05-15T03:46:46.716Z,95011
2023-05-15T03:47:56.390Z,95012
2023-05-15T03:49:06.013Z,95012
2023-05-15T03:50:14.679Z,95012
2023-05-15T03:51:24.470Z,95014
2023-05-15T03:52:33.113Z,95015
2023-05-15T03:53:42.751Z,95014
2023-05-15T03:54:52.422Z,95011
2023-05-15T03:56:02.124Z,95017
2023-05-15T03:57:11.796Z,95013
2023-05-15T03:58:21.435Z,95018
2023-05-15T03:59:31.122Z,95020
2023-05-15T04:00:40.779Z,95018
2023-05-15T04:02:03.329Z,95021
2023-05-15T04:02:59.083Z,95025
2023-05-15T04:04:08.742Z,95021
2023-05-15T04:05:18.426Z,95019
2023-05-15T04:06:28.097Z,95024
2023-05-15T04:07:36.746Z,95026
2023-05-15T04:08:46.462Z,95024
2023-05-15T04:09:56.122Z,95020
2023-05-15T04:11:04.776Z,95023
2023-05-15T04:12:14.455Z,95028
2023-05-15T04:13:23.105Z,95024
2023-05-15T04:14:31.771Z,95028
2023-05-15T04:15:41.473Z,95026
2023-05-15T04:16:51.121Z,95025
2023-05-15T04:18:00.771Z,95027
2023-05-15T04:19:10.699Z,95030
2023-05-15T04:20:19.343Z,95024
2023-05-15T04:21:27.979Z,95019
2023-05-15T04:22:37.635Z,95027
2023-05-15T04:23:46.374Z,95021
2023-05-15T04:24:56.068Z,95029
2023-05-15T04:26:04.739Z,95028
2023-05-15T04:27:13.426Z,95030
2023-05-15T04:28:23.118Z,95030
2023-05-15T04:29:32.786Z,95027
2023-05-15T04:30:41.449Z,95034
2023-05-15T04:31:50.163Z,95033
2023-05-15T04:32:58.776Z,95039
2023-05-15T04:34:07.480Z,95039
2023-05-15T04:35:16.157Z,95029
2023-05-15T04:36:25.838Z,95038
2023-05-15T04:37:35.525Z,95032
2023-05-15T04:38:45.249Z,95033
2023-05-15T04:39:54.978Z,95032
2023-05-15T04:41:04.630Z,95034
2023-05-15T04:42:13.272Z,95035
2023-05-15T04:43:22.995Z,95034
2023-05-15T04:44:31.635Z,95029
2023-05-15T04:45:41.406Z,95035
2023-05-15T04:46:50.994Z,95040
2023-05-15T04:47:59.772Z,95036
2023-05-15T04:49:09.411Z,95036
2023-05-15T04:50:18.361Z,95034
2023-05-15T04:51:28.040Z,95035
2023-05-15T04:52:37.793Z,95034
2023-05-15T04:53:47.455Z,95030
2023-05-15T04:54:56.327Z,95037
2023-05-15T04:56:05.762Z,95034
2023-05-15T04:57:14.507Z,95032
2023-05-15T04:58:24.230Z,95035
2023-05-15T04:59:33.877Z,95033
2023-05-15T05:00:43.532Z,95033
2023-05-15T05:01:53.256Z,95036
2023-05-15T05:03:03.020Z,95037
2023-05-15T05:04:12.615Z,95036
2023-05-15T05:05:22.352Z,95043
2023-05-15T05:06:30.962Z,95042
2023-05-15T05:07:40.607Z,95039
2023-05-15T05:08:49.290Z,95042
2023-05-15T05:09:58.944Z,95044
2023-05-15T05:11:07.691Z,95046
2023-05-15T05:12:15.363Z,95049
2023-05-15T05:13:24.055Z,95043
2023-05-15T05:14:32.699Z,95045
2023-05-15T05:15:41.424Z,95049
2023-05-15T05:16:51.080Z,95045
2023-05-15T05:17:59.772Z,95048
2023-05-15T05:19:08.489Z,95048
2023-05-15T05:20:18.149Z,95048
2023-05-15T05:21:26.859Z,95051
2023-05-15T05:22:36.559Z,95047
2023-05-15T05:23:46.264Z,95048
2023-05-15T05:24:55.965Z,95051
2023-05-15T05:26:06.183Z,95050
2023-05-15T05:27:13.331Z,95048
2023-05-15T05:28:23.031Z,95048
2023-05-15T05:29:32.716Z,95055
2023-05-15T05:30:40.452Z,95051
2023-05-15T05:31:50.198Z,95058
2023-05-15T05:32:58.884Z,95055
2023-05-15T05:34:08.530Z,95057
2023-05-15T05:35:18.286Z,95061
2023-05-15T05:36:26.949Z,95065
2023-05-15T05:37:36.070Z,95063
2023-05-15T05:38:45.362Z,95064
2023-05-15T05:39:54.047Z,95065
2023-05-15T05:41:03.725Z,95064
2023-05-15T05:42:12.382Z,95065
2023-05-15T05:43:21.161Z,95066
2023-05-15T05:44:30.868Z,95066
2023-05-15T05:45:39.568Z,95069
2023-05-15T05:46:49.279Z,95064
2023-05-15T05:47:59.008Z,95068
2023-05-15T05:49:06.697Z,95073
2023-05-15T05:50:16.352Z,95070
2023-05-15T05:51:25.125Z,95075
2023-05-15T05:52:33.734Z,95073
2023-05-15T05:53:43.417Z,95073
2023-05-15T05:54:52.081Z,95073
2023-05-15T05:56:00.734Z,95071
2023-05-15T05:57:10.466Z,95076
2023-05-15T05:58:25.321Z,95072
2023-05-15T05:59:28.786Z,95072
2023-05-15T06:00:37.541Z,95074
2023-05-15T06:01:46.282Z,95077
2023-05-15T06:02:56.325Z,95075
2023-05-15T06:04:05.744Z,95078
2023-05-15T06:05:14.309Z,95072
2023-05-15T06:06:23.988Z,95077
2023-05-15T06:07:32.718Z,95071
2023-05-15T06:08:41.354Z,95070
2023-05-15T06:09:50.018Z,95069
2023-05-15T06:10:58.677Z,95074
2023-05-15T06:12:08.438Z,95077
2023-05-15T06:13:18.166Z,95078
2023-05-15T06:14:26.903Z,95074
2023-05-15T06:15:36.568Z,95073
2023-05-15T06:16:45.302Z,95074
2023-05-15T06:17:54.057Z,95073
2023-05-15T06:19:03.714Z,95077
2023-05-15T06:20:13.321Z,95073
2023-05-15T06:21:23.007Z,95075
2023-05-15T06:22:32.663Z,95078
2023-05-15T06:23:42.370Z,95074
2023-05-15T06:24:52.052Z,95080
2023-05-15T06:26:00.753Z,95078
2023-05-15T06:27:10.435Z,95077
2023-05-15T06:28:20.103Z,95079
2023-05-15T06:29:28.742Z,95081
2023-05-15T06:30:38.538Z,95079
2023-05-15T06:31:46.150Z,95084
2023-05-15T06:32:55.853Z,95084
2023-05-15T06:34:05.525Z,95085
2023-05-15T06:35:15.272Z,95084
2023-05-15T06:36:23.932Z,95086
2023-05-15T06:37:33.654Z,95086
2023-05-15T06:38:43.341Z,95085
2023-05-15T06:39:52.082Z,95089
2023-05-15T06:41:00.797Z,95084
2023-05-15T06:42:10.563Z,95082
2023-05-15T06:43:20.262Z,95083
2023-05-15T06:44:29.981Z,95083
2023-05-15T06:45:39.645Z,95083
2023-05-15T06:46:49.320Z,95083
2023-05-15T06:48:01.553Z,95086
2023-05-15T06:49:08.732Z,95089
2023-05-15T06:50:17.386Z,95089
2023-05-15T06:51:27.127Z,95093
2023-05-15T06:52:35.810Z,95087
2023-05-15T06:53:45.527Z,95090
2023-05-15T06:54:55.268Z,95093
2023-05-15T06:56:02.916Z,95093
2023-05-15T06:57:11.557Z,95097
2023-05-15T06:58:20.224Z,95093
2023-05-15T06:59:29.942Z,95095
2023-05-15T07:00:39.597Z,95093
2023-05-15T07:01:49.329Z,95097
2023-05-15T07:02:58.009Z,95094
2023-05-15T07:04:07.744Z,95095
2023-05-15T07:05:18.961Z,95102
2023-05-15T07:06:28.629Z,95097
2023-05-15T07:07:38.309Z,95099
2023-05-15T07:08:48.108Z,95101
2023-05-15T07:09:56.997Z,95104
2023-05-15T07:11:05.496Z,95107
2023-05-15T07:12:15.153Z,95103
2023-05-15T07:13:24.938Z,95101
2023-05-15T07:14:32.606Z,95104
2023-05-15T07:15:41.296Z,95102
2023-05-15T07:16:50.015Z,95107
2023-05-15T07:17:58.718Z,95100
2023-05-15T07:19:08.370Z,95102
2023-05-15T07:20:16.000Z,95100
2023-05-15T07:21:24.681Z,95102
2023-05-15T07:22:38.631Z,95106
2023-05-15T07:23:45.038Z,95110
2023-05-15T07:24:53.695Z,95105
2023-05-15T07:26:02.527Z,95106
2023-05-15T07:27:13.199Z,95097
2023-05-15T07:28:22.904Z,95096
2023-05-15T07:29:31.588Z,95098
2023-05-15T07:30:41.268Z,95097
2023-05-15T07:31:51.040Z,95096
2023-05-15T07:32:58.708Z,95093
2023-05-15T07:34:07.389Z,95097
2023-05-15T07:35:16.066Z,95099
2023-05-15T07:36:24.817Z,95096
2023-05-15T07:37:34.557Z,95096
2023-05-15T07:38:43.239Z,95096
2023-05-15T07:39:52.965Z,95097
2023-05-15T07:41:01.660Z,95095
2023-05-15T07:42:10.415Z,95091
2023-05-15T07:43:19.058Z,95089
2023-05-15T07:44:27.748Z,95087
2023-05-15T07:45:36.500Z,95093
2023-05-15T07:46:46.197Z,95090
2023-05-15T07:47:54.772Z,95092
2023-05-15T07:49:03.496Z,95088
2023-05-15T07:50:13.124Z,95094
2023-05-15T07:51:22.780Z,95093
2023-05-15T07:52:32.440Z,95089
2023-05-15T07:53:42.098Z,95088
2023-05-15T07:54:50.861Z,95087
2023-05-15T07:56:00.541Z,95083
2023-05-15T07:57:09.194Z,95089
2023-05-15T07:58:17.940Z,95085
2023-05-15T07:59:27.615Z,95084
2023-05-15T08:00:35.264Z,95088
2023-05-15T08:01:43.938Z,95089
2023-05-15T08:02:53.629Z,95090
2023-05-15T08:04:02.424Z,95086
2023-05-15T08:05:12.034Z,95084
2023-05-15T08:06:21.706Z,95085
2023-05-15T08:07:30.398Z,95081
2023-05-15T08:08:40.100Z,95084
2023-05-15T08:09:49.754Z,95082
2023-05-15T08:10:57.452Z,95083
2023-05-15T08:12:07.139Z,95080
2023-05-15T08:13:16.829Z,95082
2023-05-15T08:14:26.635Z,95081
2023-05-15T08:15:36.257Z,95082
2023-05-15T08:16:44.905Z,95078
2023-05-15T08:17:54.720Z,95083
2023-05-15T08:19:04.393Z,95084
2023-05-15T08:20:14.005Z,95082
2023-05-15T08:21:23.712Z,95086
2023-05-15T08:22:33.409Z,95092
2023-05-15T08:23:43.104Z,95090
2023-05-15T08:24:51.757Z,95090
2023-05-15T08:26:00.442Z,95091
2023-05-15T08:27:10.105Z,95093
2023-05-15T08:28:17.821Z,95078
2023-05-15T08:29:26.499Z,95078
2023-05-15T08:30:35.190Z,95081
2023-05-15T08:31:45.091Z,95085
2023-05-15T08:32:54.647Z,95083
2023-05-15T08:34:03.300Z,95083
2023-05-15T08:35:12.977Z,95081
2023-05-15T08:36:22.717Z,95087
2023-05-15T08:37:31.397Z,95082
2023-05-15T08:38:41.131Z,95083
2023-05-15T08:39:49.790Z,95091
2023-05-15T08:40:59.604Z,95082
2023-05-15T08:42:09.316Z,95082
2023-05-15T08:43:17.969Z,95083
2023-05-15T08:44:26.653Z,95084
2023-05-15T08:45:35.334Z,95081
2023-05-15T08:46:45.194Z,95079
2023-05-15T08:47:54.860Z,95077
2023-05-15T08:49:04.514Z,95082
2023-05-15T08:50:13.145Z,95081
2023-05-15T08:51:22.900Z,95083
2023-05-15T08:52:32.561Z,95087
2023-05-15T08:53:42.267Z,95082
2023-05-15T08:54:51.914Z,95082
2023-05-15T08:56:01.688Z,95083
2023-05-15T08:57:11.333Z,95082
2023-05-15T08:58:20.059Z,95082
2023-05-15T08:59:28.739Z,95082
2023-05-15T09:00:37.559Z,95089
2023-05-15T09:01:47.233Z,95088
2023-05-15T09:02:56.900Z,95082
2023-05-15T09:04:05.657Z,95088
2023-05-15T09:05:15.342Z,95084
2023-05-15T09:06:24.972Z,95085
2023-05-15T09:07:34.613Z,95080
2023-05-15T09:08:44.297Z,95078
2023-05-15T09:09:54.057Z,95073
2023-05-15T09:11:03.736Z,95074
2023-05-15T09:12:13.397Z,95073
2023-05-15T09:13:21.072Z,95070
2023-05-15T09:14:29.767Z,95071
2023-05-15T09:15:39.438Z,95064
2023-05-15T09:16:48.174Z,95071
2023-05-15T09:17:57.817Z,95074
2023-05-15T09:19:07.559Z,95069
2023-05-15T09:20:17.161Z,95067
2023-05-15T09:21:26.877Z,95065
2023-05-15T09:22:35.557Z,95065
2023-05-15T09:23:45.225Z,95067
2023-05-15T09:24:54.918Z,95067
2023-05-15T09:26:03.571Z,95066
2023-05-15T09:27:13.242Z,95065
2023-05-15T09:28:22.956Z,95065
2023-05-15T09:29:32.614Z,95069
2023-05-15T09:30:42.300Z,95068
2023-05-15T09:31:51.025Z,95065
2023-05-15T09:32:59.726Z,95065
2023-05-15T09:34:09.376Z,95071
2023-05-15T09:35:18.013Z,95072
2023-05-15T09:36:27.678Z,95070
2023-05-15T09:37:36.406Z,95072
2023-05-15T09:38:45.103Z,95064
2023-05-15T09:39:54.782Z,95065
2023-05-15T09:41:04.463Z,95066
2023-05-15T09:42:14.144Z,95070
2023-05-15T09:43:23.814Z,95068
2023-05-15T09:44:32.477Z,95063
2023-05-15T09:45:41.127Z,95063
2023-05-15T09:46:50.864Z,95064
2023-05-15T09:47:59.755Z,95068
2023-05-15T09:49:09.182Z,95058
2023-05-15T09:50:16.855Z,95066
2023-05-15T09:51:26.501Z,95062
2023-05-15T09:52:36.225Z,95055
2023-05-15T09:53:44.880Z,95055
2023-05-15T09:54:54.542Z,95059
2023-05-15T09:56:03.187Z,95062
2023-05-15T09:57:12.947Z,95052
2023-05-15T09:58:22.600Z,95056
2023-05-15T09:59:31.289Z,95050
2023-05-15T10:00:47.430Z,95055
2023-05-15T10:01:51.728Z,95052
2023-05-15T10:03:00.357Z,95054
2023-05-15T10:04:10.005Z,95048
2023-05-15T10:05:21.615Z,95051
2023-05-15T10:06:29.373Z,95050
2023-05-15T10:07:39.047Z,95050
2023-05-15T10:08:48.694Z,95056
2023-05-15T10:09:57.364Z,95051
2023-05-15T10:11:07.106Z,95051
2023-05-15T10:12:15.751Z,95048
2023-05-15T10:13:25.442Z,95047
2023-05-15T10:14:35.113Z,95043
2023-05-15T10:15:44.817Z,95041
2023-05-15T10:16:54.471Z,95039
2023-05-15T10:18:03.191Z,95036
2023-05-15T10:19:12.893Z,95024
2023-05-15T10:20:22.579Z,95027
2023-05-15T10:21:32.180Z,95023
2023-05-15T10:22:41.875Z,95021
2023-05-15T10:23:51.524Z,95018
2023-05-15T10:25:01.210Z,95025
2023-05-15T10:26:10.901Z,95027
2023-05-15T10:27:18.574Z,95027
2023-05-15T10:28:27.284Z,95024
2023-05-15T10:29:37.033Z,95021
2023-05-15T10:30:46.719Z,95025
2023-05-15T10:31:55.472Z,95021
2023-05-15T10:33:05.068Z,95025
2023-05-15T10:34:14.703Z,95022
2023-05-15T10:35:24.428Z,95025
2023-05-15T10:36:34.150Z,95021
2023-05-15T10:37:42.776Z,95024
2023-05-15T10:38:52.445Z,95023
2023-05-15T10:40:01.156Z,95020
2023-05-15T10:42:21.486Z,95015
2023-05-15T10:43:30.137Z,95015
2023-05-15T10:44:38.946Z,95013
2023-05-15T10:45:48.605Z,95009
2023-05-15T10:46:58.320Z,95001
2023-05-15T10:48:06.976Z,95000
2023-05-15T10:49:15.710Z,94999
2023-05-15T10:50:25.627Z,94996
2023-05-15T10:51:34.047Z,94993
2023-05-15T10:52:43.727Z,94999
2023-05-15T10:53:53.415Z,94997
2023-05-15T10:55:03.094Z,95000
2023-05-15T10:56:12.841Z,95002
2023-05-15T10:57:20.478Z,94999
2023-05-15T10:58:30.152Z,95004
2023-05-15T10:59:40.802Z,95004
2023-05-15T11:00:49.480Z,95004
2023-05-15T11:01:58.101Z,95004
2023-05-15T11:03:06.811Z,94999
2023-05-15T11:04:15.521Z,95001
2023-05-15T11:05:25.166Z,95004
2023-05-15T11:06:33.810Z,94997
2023-05-15T11:07:43.496Z,94992
2023-05-15T11:08:53.311Z,94987
2023-05-15T11:10:02.757Z,94987
2023-05-15T11:11:11.506Z,94982
2023-05-15T11:12:20.230Z,94979
2023-05-15T11:13:28.915Z,94985
2023-05-15T11:14:37.631Z,94986
2023-05-15T11:15:45.284Z,94988
2023-05-15T11:16:55.027Z,94983
2023-05-15T11:18:04.662Z,94991
2023-05-15T11:19:13.382Z,94991
2023-05-15T11:20:22.078Z,94984
2023-05-15T11:21:30.772Z,94988
2023-05-15T11:22:39.514Z,94989
2023-05-15T11:23:49.182Z,94986
2023-05-15T11:24:56.915Z,94991
2023-05-15T11:26:06.589Z,94988
2023-05-15T11:27:16.307Z,94986
2023-05-15T11:28:24.022Z,94992
2023-05-15T11:29:33.701Z,94987
2023-05-15T11:30:43.459Z,94985
2023-05-15T11:31:52.102Z,94986
2023-05-15T11:33:01.861Z,94986
2023-05-15T11:34:10.525Z,94988
2023-05-15T11:35:19.209Z,94985
2023-05-15T11:36:29.107Z,94990
2023-05-15T11:37:39.740Z,94991
2023-05-15T11:38:50.404Z,94993
2023-05-15T11:40:00.140Z,94989
2023-05-15T11:41:08.761Z,94990
2023-05-15T11:42:18.465Z,94990
2023-05-15T11:43:26.190Z,94992
2023-05-15T11:44:35.832Z,94986
2023-05-15T11:45:45.585Z,94983
2023-05-15T11:46:53.321Z,94990
2023-05-15T11:48:02.030Z,94989
2023-05-15T11:49:11.682Z,94982
2023-05-15T11:50:20.438Z,94983
2023-05-15T11:51:30.113Z,94982
2023-05-15T11:52:39.791Z,94981
2023-05-15T11:53:48.495Z,94980
2023-05-15T11:54:58.245Z,94987
2023-05-15T11:56:06.945Z,94987
2023-05-15T11:57:16.608Z,94986
2023-05-15T11:58:26.313Z,94991
2023-05-15T11:59:35.024Z,94987
2023-05-15T12:00:44.684Z,94991
2023-05-15T12:01:52.411Z,94997
2023-05-15T12:03:01.105Z,94993
2023-05-15T12:04:10.795Z,94992
2023-05-15T12:05:20.495Z,94996
2023-05-15T12:06:29.251Z,94993
2023-05-15T12:07:38.884Z,94992
2023-05-15T12:08:48.605Z,94996
2023-05-15T12:09:58.300Z,94994
2023-05-15T12:11:07.088Z,95005
2023-05-15T12:12:15.765Z,95003
2023-05-15T12:13:25.475Z,95004
2023-05-15T12:14:35.127Z,95006
2023-05-15T12:15:43.815Z,94998
2023-05-15T12:16:52.508Z,94992
2023-05-15T12:18:02.181Z,94991
2023-05-15T12:19:11.950Z,94984
2023-05-15T12:20:19.543Z,94994
2023-05-15T12:21:29.210Z,94995
2023-05-15T12:22:39.857Z,94997
2023-05-15T12:23:59.795Z,94999
2023-05-15T12:24:59.185Z,95003
2023-05-15T12:26:08.841Z,95010
2023-05-15T12:27:17.573Z,95007
2023-05-15T12:28:27.250Z,95010
2023-05-15T12:29:34.931Z,95020
2023-05-15T12:30:44.619Z,95017
2023-05-15T12:31:53.412Z,95023
2023-05-15T12:33:02.020Z,95024
2023-05-15T12:34:11.694Z,95015
2023-05-15T12:35:20.387Z,95010
2023-05-15T12:36:30.053Z,95010
2023-05-15T12:37:39.753Z,95006
2023-05-15T12:38:48.442Z,95018
2023-05-15T12:39:58.104Z,95016
2023-05-15T12:41:07.755Z,95013
2023-05-15T12:42:17.471Z,95012
2023-05-15T12:43:27.194Z,95009
2023-05-15T12:44:36.806Z,95011
2023-05-15T12:45:46.541Z,95004
2023-05-15T12:46:56.222Z,95012
2023-05-15T12:48:05.045Z,95007
2023-05-15T12:49:14.606Z,95014
2023-05-15T12:50:24.520Z,95012
2023-05-15T12:51:33.031Z,95011
2023-05-15T12:52:42.724Z,95015
2023-05-15T12:53:51.454Z,95015
2023-05-15T12:55:00.208Z,95023
2023-05-15T12:56:08.841Z,95023
2023-05-15T12:57:17.508Z,95026
2023-05-15T12:58:27.190Z,95030
2023-05-15T12:59:36.882Z,95031
2023-05-15T13:00:45.624Z,95029
2023-05-15T13:01:55.338Z,95031
2023-05-15T13:03:04.048Z,95031
2023-05-15T13:04:12.617Z,95024
2023-05-15T13:05:22.300Z,95027
2023-05-15T13:06:42.246Z,95031
2023-05-15T13:07:42.596Z,95033
2023-05-15T13:08:52.297Z,95028
2023-05-15T13:10:01.003Z,95032
2023-05-15T13:11:10.697Z,95033
2023-05-15T13:12:19.401Z,95030
2023-05-15T13:13:28.077Z,95030
2023-05-15T13:14:36.893Z,95035
2023-05-15T13:15:45.625Z,95031
2023-05-15T13:16:54.173Z,95037
2023-05-15T13:18:02.889Z,95037
2023-05-15T13:19:11.581Z,95038
2023-05-15T13:20:21.202Z,95035
2023-05-15T13:21:28.845Z,95041
2023-05-15T13:22:37.520Z,95040
2023-05-15T13:23:46.246Z,95038
2023-05-15T13:24:54.916Z,95036
2023-05-15T13:26:04.589Z,95037
2023-05-15T13:27:13.262Z,95038
2023-05-15T13:28:22.014Z,95046
2023-05-15T13:29:31.779Z,95043
2023-05-15T13:30:41.613Z,95042
2023-05-15T13:31:51.220Z,95043
2023-05-15T13:33:00.999Z,95045
2023-05-15T13:34:09.519Z,95043
2023-05-15T13:35:19.241Z,95040
2023-05-15T13:36:26.891Z,95041
2023-05-15T13:37:36.568Z,95038
2023-05-15T13:38:46.321Z,95041
2023-05-15T13:39:54.926Z,95042
2023-05-15T13:41:04.611Z,95041
2023-05-15T13:42:14.339Z,95044
2023-05-15T13:43:26.385Z,95042
2023-05-15T13:44:33.689Z,95045
2023-05-15T13:45:42.365Z,95042
2023-05-15T13:46:52.079Z,95041
2023-05-15T13:48:02.650Z,95036
2023-05-15T13:49:10.209Z,95042
2023-05-15T13:50:19.892Z,95041
2023-05-15T13:51:29.558Z,95041
2023-05-15T13:52:38.277Z,95041
2023-05-15T13:53:47.928Z,95034
2023-05-15T13:54:55.576Z,95038
2023-05-15T13:56:05.314Z,95036
2023-05-15T13:57:14.975Z,95037
2023-05-15T13:58:22.635Z,95040
2023-05-15T13:59:31.287Z,95045
2023-05-15T14:00:40.031Z,95032
2023-05-15T14:01:48.688Z,95040
2023-05-15T14:02:57.371Z,95043
2023-05-15T14:04:06.078Z,95042
2023-05-15T14:05:15.704Z,95042
2023-05-15T14:06:25.375Z,95038
2023-05-15T14:07:34.043Z,95041
2023-05-15T14:08:41.692Z,95042
2023-05-15T14:09:51.008Z,95041
2023-05-15T14:11:00.684Z,95044
2023-05-15T14:12:10.359Z,95046
2023-05-15T14:13:19.041Z,95045
2023-05-15T14:14:29.357Z,95048
2023-05-15T14:15:39.992Z,95043
2023-05-15T14:16:48.693Z,95046
2023-05-15T14:17:56.364Z,95043
2023-05-15T14:19:06.012Z,95044
2023-05-15T14:20:15.723Z,95042
2023-05-15T14:21:25.362Z,95035
2023-05-15T14:22:34.026Z,95037
2023-05-15T14:23:43.672Z,95041
2023-05-15T14:24:52.382Z,95036
2023-05-15T14:26:02.056Z,95035
2023-05-15T14:27:11.694Z,95038
2023-05-15T14:28:20.393Z,95033
2023-05-15T14:29:30.136Z,95033
2023-05-15T14:30:39.815Z,95023
2023-05-15T14:31:49.511Z,95025
2023-05-15T14:32:59.247Z,95033
2023-05-15T14:34:07.842Z,95031
2023-05-15T14:35:17.516Z,95031
2023-05-15T14:36:27.221Z,95035
2023-05-15T14:37:35.889Z,95038
2023-05-15T14:38:45.555Z,95037
2023-05-15T14:39:53.258Z,95042
2023-05-15T14:41:01.895Z,95042
2023-05-15T14:42:11.606Z,95043
2023-05-15T14:43:20.299Z,95049
2023-05-15T14:44:30.001Z,95044
2023-05-15T14:45:38.648Z,95054
2023-05-15T14:46:47.361Z,95056
2023-05-15T14:47:57.009Z,95056
2023-05-15T14:49:06.678Z,95056
2023-05-15T14:50:15.363Z,95063
2023-05-15T14:51:25.031Z,95058
2023-05-15T14:52:34.720Z,95064